createdAt,value
2018-05-14T00:01:20.631Z,86.07
2018-05-14T00:03:48.135Z,88.57
2018-05-14T00:06:15.648Z,84.10
2018-05-14T00:08:43.224Z,84.37
2018-05-14T00:11:11.499Z,85.27
2018-05-14T00:13:39.760Z,85.50
2018-05-14T00:16:08.069Z,87.50
2018-05-14T00:18:35.672Z,85.67
2018-05-14T00:21:03.276Z,83.60
2018-05-14T00:23:30.804Z,84.17
2018-05-14T00:25:58.329Z,82.37
2018-05-14T00:28:25.941Z,86.10
2018-05-14T00:30:54.321Z,88.60
2018-05-14T00:33:22.583Z,85.27
2018-05-14T00:36:04.444Z,80.13
2018-05-14T00:38:32.093Z,80.97
2018-05-14T00:40:59.722Z,85.37
2018-05-14T00:43:27.981Z,83.37
2018-05-14T00:45:56.257Z,83.37
2018-05-14T00:48:24.577Z,84.90
2018-05-14T00:50:52.089Z,83.97
2018-05-14T00:53:20.366Z,83.03
2018-05-14T00:55:48.654Z,81.27
2018-05-14T00:58:16.932Z,85.10
2018-05-14T01:00:45.216Z,80.67
2018-05-14T01:03:12.720Z,81.03
2018-05-14T01:05:40.335Z,84.13
2018-05-14T01:08:07.862Z,80.73
2018-05-14T01:10:35.440Z,85.53
2018-05-14T01:13:03.712Z,80.77
2018-05-14T01:15:31.997Z,80.37
2018-05-14T01:18:00.373Z,80.20
2018-05-14T01:20:27.943Z,81.13
2018-05-14T01:22:55.485Z,83.40
2018-05-14T01:25:23.759Z,81.60
2018-05-14T01:27:52.170Z,82.20
2018-05-14T01:30:19.707Z,81.67
2018-05-14T01:32:48.081Z,86.03
2018-05-14T01:35:16.348Z,82.27
2018-05-14T01:37:44.633Z,84.13
2018-05-14T01:40:12.948Z,85.20
2018-05-14T01:42:40.565Z,80.77
2018-05-14T01:45:08.946Z,84.80
2018-05-14T01:47:37.247Z,82.20
2018-05-14T01:50:04.794Z,80.53
2018-05-14T01:52:32.300Z,84.33
2018-05-14T01:54:59.893Z,80.57
2018-05-14T01:57:28.240Z,81.77
2018-05-14T01:59:55.743Z,81.60
2018-05-14T02:02:24.023Z,84.00
2018-05-14T02:04:51.517Z,82.87
2018-05-14T02:07:19.045Z,83.13
2018-05-14T02:09:46.540Z,79.87
2018-05-14T02:12:14.062Z,76.27
2018-05-14T02:14:42.142Z,82.77
2018-05-14T02:17:09.659Z,75.60
2018-05-14T02:19:37.175Z,81.63
2018-05-14T02:22:04.671Z,78.50
2018-05-14T02:24:32.183Z,80.87
2018-05-14T02:26:59.785Z,75.50
2018-05-14T02:29:27.427Z,76.73
2018-05-14T02:31:54.913Z,78.10
2018-05-14T02:34:23.309Z,77.47
2018-05-14T02:36:50.873Z,81.00
2018-05-14T02:39:18.394Z,80.63
2018-05-14T02:41:45.988Z,81.67
2018-05-14T02:44:14.256Z,81.17
2018-05-14T02:46:42.525Z,78.73
2018-05-14T02:49:10.813Z,82.83
2018-05-14T02:51:39.089Z,82.40
2018-05-14T02:54:07.469Z,80.37
2018-05-14T02:56:35.733Z,81.43
2018-05-14T02:59:04.024Z,81.70
2018-05-14T03:01:31.526Z,84.27
2018-05-14T03:03:59.027Z,78.47
2018-05-14T03:06:27.414Z,80.80
2018-05-14T03:09:01.756Z,88.70
2018-05-14T03:11:29.314Z,83.70
2018-05-14T03:13:56.808Z,81.07
2018-05-14T03:16:24.413Z,85.83
2018-05-14T03:18:52.701Z,86.10
2018-05-14T03:21:20.274Z,84.73
2018-05-14T03:23:47.782Z,85.10
2018-05-14T03:26:15.357Z,86.13
2018-05-14T03:28:43.624Z,79.00
2018-05-14T03:31:11.128Z,79.43
2018-05-14T03:33:38.621Z,83.27
2018-05-14T03:36:06.222Z,81.70
2018-05-14T03:38:33.724Z,84.73
2018-05-14T03:41:01.245Z,82.40
2018-05-14T03:43:28.749Z,80.97
2018-05-14T03:45:56.280Z,79.53
2018-05-14T03:48:23.777Z,81.63
2018-05-14T03:50:51.301Z,85.23
2018-05-14T03:53:18.848Z,82.57
2018-05-14T03:55:46.409Z,82.67
2018-05-14T03:58:25.972Z,77.40
2018-05-14T04:01:05.095Z,83.87
2018-05-14T04:03:44.708Z,78.70
2018-05-14T04:06:24.139Z,77.50
2018-05-14T04:08:51.677Z,78.20
2018-05-14T04:11:19.998Z,78.23
2018-05-14T04:13:47.520Z,80.13
2018-05-14T04:16:15.904Z,80.87
2018-05-14T04:18:44.167Z,77.10
2018-05-14T04:21:12.499Z,76.10
2018-05-14T04:23:40.025Z,81.20
2018-05-14T04:26:07.520Z,78.13
2018-05-14T04:28:35.125Z,75.77
2018-05-14T04:31:03.505Z,73.70
2018-05-14T04:33:31.765Z,77.17
2018-05-14T04:35:59.349Z,78.80
2018-05-14T04:38:27.708Z,76.57
2018-05-14T04:40:58.929Z,73.00
2018-05-14T04:43:26.423Z,73.80
2018-05-14T04:45:55.123Z,69.83
2018-05-14T04:48:22.652Z,66.53
2018-05-14T04:50:50.941Z,64.93
2018-05-14T04:53:19.217Z,69.87
2018-05-14T04:55:47.485Z,69.50
2018-05-14T04:58:15.749Z,65.73
2018-05-14T05:00:43.304Z,67.10
2018-05-14T05:03:10.832Z,66.97
2018-05-14T05:05:38.367Z,66.03
2018-05-14T05:08:07.132Z,62.50
2018-05-14T05:10:35.476Z,66.50
2018-05-14T05:13:03.056Z,64.07
2018-05-14T05:15:31.344Z,64.30
2018-05-14T05:17:59.604Z,62.67
2018-05-14T05:20:27.107Z,62.17
2018-05-14T05:22:54.769Z,59.83
2018-05-14T05:25:22.313Z,61.73
2018-05-14T05:27:49.882Z,60.00
2018-05-14T05:30:17.532Z,59.93
2018-05-14T05:32:45.048Z,62.33
2018-05-14T05:35:12.534Z,60.87
2018-05-14T05:37:41.094Z,62.27
2018-05-14T05:40:08.618Z,63.03
2018-05-14T05:42:36.212Z,61.17
2018-05-14T05:45:03.831Z,61.10
2018-05-14T05:47:31.310Z,60.00
2018-05-14T05:49:58.920Z,58.10
2018-05-14T05:52:27.322Z,60.40
2018-05-14T05:54:55.681Z,57.97
2018-05-14T05:57:23.345Z,56.80
2018-05-14T05:59:51.312Z,54.20
2018-05-14T06:02:18.830Z,58.30
2018-05-14T06:04:56.320Z,60.77
2018-05-14T06:07:23.860Z,61.57
2018-05-14T06:09:51.369Z,57.73
2018-05-14T06:12:20.375Z,58.10
2018-05-14T06:14:47.935Z,57.97
2018-05-14T06:17:15.428Z,58.93
2018-05-14T06:19:42.951Z,57.63
2018-05-14T06:22:10.488Z,58.03
2018-05-14T06:24:38.759Z,55.77
2018-05-14T06:27:07.040Z,55.90
2018-05-14T06:29:35.310Z,57.07
2018-05-14T06:32:03.588Z,55.40
2018-05-14T06:34:31.974Z,55.80
2018-05-14T06:37:00.239Z,56.67
2018-05-14T06:39:27.745Z,58.40
2018-05-14T06:41:55.289Z,56.20
2018-05-14T06:44:22.837Z,55.37
2018-05-14T06:46:50.292Z,57.53
2018-05-14T06:49:17.915Z,53.57
2018-05-14T06:51:45.378Z,55.03
2018-05-14T06:54:12.875Z,54.57
2018-05-14T06:56:40.394Z,54.00
2018-05-14T06:59:07.956Z,52.67
2018-05-14T07:01:36.265Z,53.77
2018-05-14T07:04:03.815Z,50.63
2018-05-14T07:06:32.372Z,54.20
2018-05-14T07:08:59.904Z,53.20
2018-05-14T07:11:28.260Z,54.80
2018-05-14T07:13:59.565Z,52.77
2018-05-14T07:16:27.831Z,54.93
2018-05-14T07:18:55.323Z,54.00
2018-05-14T07:21:22.832Z,56.00
2018-05-14T07:23:50.333Z,52.30
2018-05-14T07:26:17.848Z,50.63
2018-05-14T07:28:45.331Z,53.33
2018-05-14T07:31:13.616Z,52.13
2018-05-14T07:33:41.985Z,48.87
2018-05-14T07:36:10.332Z,45.83
2018-05-14T07:38:37.952Z,47.80
2018-05-14T07:41:05.473Z,50.00
2018-05-14T07:43:33.824Z,47.00
2018-05-14T07:46:01.275Z,46.57
2018-05-14T07:48:28.756Z,48.60
2018-05-14T07:50:56.429Z,46.83
2018-05-14T07:53:24.921Z,45.50
2018-05-14T07:55:53.177Z,45.37
2018-05-14T07:58:20.851Z,45.90
2018-05-14T08:00:49.125Z,49.63
2018-05-14T08:03:17.707Z,47.50
2018-05-14T08:05:45.988Z,49.57
2018-05-14T08:08:14.263Z,46.97
2018-05-14T08:10:42.551Z,51.17
2018-05-14T08:13:10.829Z,47.07
2018-05-14T08:15:38.355Z,51.00
2018-05-14T08:18:05.869Z,48.20
2018-05-14T08:20:33.369Z,48.60
2018-05-14T08:23:00.941Z,48.70
2018-05-14T08:25:29.250Z,46.97
2018-05-14T08:27:57.097Z,49.10
2018-05-14T08:30:24.609Z,49.10
2018-05-14T08:32:52.105Z,48.07
2018-05-14T08:35:20.390Z,48.00
2018-05-14T08:37:47.977Z,50.30
2018-05-14T08:40:15.803Z,47.20
2018-05-14T08:42:44.111Z,46.33
2018-05-14T08:45:11.604Z,46.30
2018-05-14T08:47:39.122Z,48.10
2018-05-14T08:50:06.644Z,47.97
2018-05-14T08:52:35.034Z,49.30
2018-05-14T08:55:03.912Z,47.07
2018-05-14T08:57:32.178Z,49.37
2018-05-14T09:00:01.320Z,48.60
2018-05-14T09:02:29.602Z,48.37
2018-05-14T09:04:57.109Z,47.27
2018-05-14T09:07:24.605Z,50.10
2018-05-14T09:09:52.129Z,47.97
2018-05-14T09:12:19.641Z,46.30
2018-05-14T09:14:47.157Z,46.33
2018-05-14T09:17:15.439Z,49.07
2018-05-14T09:19:43.824Z,47.47
2018-05-14T09:22:11.361Z,46.07
2018-05-14T09:24:39.648Z,48.60
2018-05-14T09:27:07.921Z,48.87
2018-05-14T09:29:36.325Z,48.60
2018-05-14T09:32:03.809Z,46.47
2018-05-14T09:34:31.312Z,47.00
2018-05-14T09:36:59.607Z,44.10
2018-05-14T09:39:27.869Z,44.43
2018-05-14T09:41:55.512Z,40.53
2018-05-14T09:44:23.781Z,40.90
2018-05-14T09:46:58.415Z,39.50
2018-05-14T09:49:26.665Z,39.23
2018-05-14T09:51:54.157Z,38.63
2018-05-14T09:54:22.537Z,39.90
2018-05-14T09:56:50.107Z,38.20
2018-05-14T09:59:17.643Z,36.33
2018-05-14T10:01:46.005Z,39.00
2018-05-14T10:04:13.459Z,37.67
2018-05-14T10:06:41.004Z,38.90
2018-05-14T10:09:08.496Z,38.63
2018-05-14T10:11:36.842Z,39.73
2018-05-14T10:14:04.346Z,38.50
2018-05-14T10:16:31.856Z,34.27
2018-05-14T10:18:59.359Z,35.10
2018-05-14T10:21:27.619Z,38.60
2018-05-14T10:23:55.904Z,37.60
2018-05-14T10:26:24.169Z,36.37
2018-05-14T10:28:51.679Z,38.33
2018-05-14T10:31:19.170Z,39.13
2018-05-14T10:33:46.656Z,42.20
2018-05-14T10:36:14.916Z,42.73
2018-05-14T10:38:43.285Z,43.07
2018-05-14T10:41:11.640Z,44.67
2018-05-14T10:43:39.183Z,43.53
2018-05-14T10:46:06.656Z,43.00
2018-05-14T10:48:34.172Z,44.43
2018-05-14T10:51:01.699Z,44.33
2018-05-14T10:53:30.045Z,45.00
2018-05-14T10:55:57.581Z,42.90
2018-05-14T10:58:25.115Z,45.13
2018-05-14T11:00:53.375Z,43.10
2018-05-14T11:03:21.636Z,45.20
2018-05-14T11:05:49.201Z,45.73
2018-05-14T11:08:16.776Z,42.53
2018-05-14T11:10:44.316Z,44.50
2018-05-14T11:13:12.588Z,44.17
2018-05-14T11:15:41.004Z,42.33
2018-05-14T11:18:08.542Z,43.37
2018-05-14T11:20:36.799Z,40.97
2018-05-14T11:23:04.371Z,39.00
2018-05-14T11:25:32.673Z,37.77
2018-05-14T11:28:00.326Z,41.23
2018-05-14T11:30:27.816Z,38.97
2018-05-14T11:32:55.321Z,38.03
2018-05-14T11:35:23.646Z,39.03
2018-05-14T11:37:51.883Z,36.13
2018-05-14T11:40:19.439Z,37.07
2018-05-14T11:42:47.707Z,38.70
2018-05-14T11:45:16.077Z,34.50
2018-05-14T11:47:44.387Z,36.90
2018-05-14T11:50:11.881Z,34.70
2018-05-14T11:52:39.411Z,35.07
2018-05-14T11:55:06.928Z,32.90
2018-05-14T11:57:35.241Z,30.73
2018-05-14T12:00:02.844Z,32.40
2018-05-14T12:02:30.386Z,30.00
2018-05-14T12:04:58.136Z,32.00
2018-05-14T12:07:26.966Z,31.97
2018-05-14T12:09:55.309Z,31.93
2018-05-14T12:12:23.501Z,37.30
2018-05-14T12:14:51.340Z,36.87
2018-05-14T12:17:18.967Z,36.73
2018-05-14T12:19:48.789Z,37.37
2018-05-14T12:22:16.321Z,33.70
2018-05-14T12:24:44.585Z,32.03
2018-05-14T12:27:12.125Z,33.20
2018-05-14T12:29:41.079Z,32.50
2018-05-14T12:32:08.640Z,33.33
2018-05-14T12:34:36.085Z,30.90
2018-05-14T12:37:03.657Z,28.17
2018-05-14T12:39:32.021Z,25.00
2018-05-14T12:41:59.852Z,21.10
2018-05-14T12:44:27.436Z,22.70
2018-05-14T12:46:56.741Z,21.10
2018-05-14T12:49:25.960Z,19.30
2018-05-14T12:51:53.507Z,20.57
2018-05-14T12:54:21.048Z,19.57
2018-05-14T12:56:49.481Z,18.63
2018-05-14T12:59:17.014Z,20.37
2018-05-14T13:01:45.540Z,19.30
2018-05-14T13:04:13.123Z,18.07
2018-05-14T13:06:41.418Z,19.73
2018-05-14T13:09:09.008Z,18.10
2018-05-14T13:11:46.450Z,17.40
2018-05-14T13:14:15.840Z,17.30
2018-05-14T13:16:54.926Z,16.90
2018-05-14T13:19:22.475Z,16.83
2018-05-14T13:21:50.469Z,16.87
2018-05-14T13:24:17.975Z,17.13
2018-05-14T13:26:47.642Z,15.80
2018-05-14T13:29:15.259Z,15.40
2018-05-14T13:31:42.952Z,16.30
2018-05-14T13:34:10.443Z,14.40
2018-05-14T13:36:38.720Z,15.37
2018-05-14T13:39:07.397Z,14.13
2018-05-14T13:41:35.070Z,14.17
2018-05-14T13:44:03.379Z,12.17
2018-05-14T13:49:04.870Z,13.73
2018-05-14T13:51:39.762Z,13.27
2018-05-14T13:54:08.024Z,13.13
2018-05-14T13:56:35.573Z,11.67
2018-05-14T13:59:03.844Z,11.40
2018-05-14T14:01:32.140Z,11.83
2018-05-14T14:04:00.429Z,10.70
2018-05-14T14:06:27.979Z,11.53
2018-05-14T14:08:55.525Z,10.50
2018-05-14T14:11:23.828Z,10.30
2018-05-14T14:13:52.076Z,10.10
2018-05-14T14:16:20.339Z,10.00
2018-05-14T14:18:48.611Z,10.00
2018-05-14T14:21:16.885Z,9.30
2018-05-14T14:23:44.607Z,9.77
2018-05-14T14:26:13.280Z,9.00
2018-05-14T14:28:40.813Z,9.03
2018-05-14T14:31:08.346Z,9.80
2018-05-14T14:33:35.966Z,9.90
2018-05-14T14:36:03.469Z,8.50
2018-05-14T14:38:30.946Z,8.83
2018-05-14T14:40:59.207Z,8.67
2018-05-14T14:43:27.466Z,8.40
2018-05-14T14:45:55.064Z,8.07
2018-05-14T14:48:22.559Z,8.40
2018-05-14T14:50:50.111Z,8.43
2018-05-14T14:53:17.620Z,8.07
2018-05-14T14:55:45.904Z,8.63
2018-05-14T14:58:14.252Z,8.20
2018-05-14T15:00:41.739Z,8.10
2018-05-14T15:03:10.837Z,7.57
2018-05-14T15:05:38.351Z,6.83
2018-05-14T15:08:05.853Z,7.07
2018-05-14T15:10:33.443Z,7.30
2018-05-14T15:13:02.155Z,6.97
2018-05-14T15:15:29.675Z,7.10
2018-05-14T15:17:57.201Z,6.60
2018-05-14T15:20:25.498Z,6.53
2018-05-14T15:22:53.136Z,6.40
2018-05-14T15:25:21.688Z,6.23
2018-05-14T15:27:59.280Z,7.47
2018-05-14T15:30:26.787Z,7.00
2018-05-14T15:32:54.324Z,7.17
2018-05-14T15:35:23.102Z,6.63
2018-05-14T15:37:50.676Z,6.83
2018-05-14T15:40:19.298Z,6.20
2018-05-14T15:42:46.803Z,6.30
2018-05-14T15:45:15.067Z,6.20
2018-05-14T15:47:42.665Z,5.93
2018-05-14T15:50:10.969Z,6.00
2018-05-14T15:52:38.639Z,5.70
2018-05-14T15:55:06.104Z,5.70
2018-05-14T15:57:33.608Z,6.03
2018-05-14T16:00:02.066Z,6.13
2018-05-14T16:02:30.323Z,6.40
2018-05-14T16:04:57.917Z,6.10
2018-05-14T16:07:26.199Z,6.70
2018-05-14T16:09:54.537Z,6.10
2018-05-14T16:12:22.131Z,5.93
2018-05-14T16:14:50.437Z,6.47
2018-05-14T16:17:18.000Z,6.03
2018-05-14T16:19:45.545Z,6.03
2018-05-14T16:22:13.193Z,6.37
2018-05-14T16:24:41.645Z,5.90
2018-05-14T16:27:09.206Z,6.37
2018-05-14T16:29:37.592Z,6.60
2018-05-14T16:32:05.868Z,6.30
2018-05-14T16:34:34.210Z,5.97
2018-05-14T16:37:02.785Z,6.40
2018-05-14T16:39:30.301Z,5.77
2018-05-14T16:41:58.610Z,6.23
2018-05-14T16:44:26.160Z,5.87
2018-05-14T16:46:53.646Z,6.20
2018-05-14T16:49:21.997Z,6.47
2018-05-14T16:51:49.512Z,6.37
2018-05-14T16:54:17.791Z,5.40
2018-05-14T16:56:46.153Z,5.70
2018-05-14T16:59:13.676Z,6.17
2018-05-14T17:01:41.190Z,6.30
2018-05-14T17:04:09.535Z,5.30
2018-05-14T17:06:37.003Z,5.93
2018-05-14T17:09:04.733Z,6.07
2018-05-14T17:11:32.337Z,5.67
2018-05-14T17:14:00.623Z,5.50
2018-05-14T17:16:28.905Z,5.57
2018-05-14T17:18:57.190Z,6.20
2018-05-14T17:21:24.760Z,6.50
2018-05-14T17:23:52.246Z,6.57
2018-05-14T17:26:21.748Z,7.20
2018-05-14T17:28:49.207Z,7.17
2018-05-14T17:31:16.757Z,5.50
2018-05-14T17:33:44.259Z,5.73
2018-05-14T17:36:11.863Z,6.73
2018-05-14T17:38:40.518Z,6.13
2018-05-14T17:41:08.813Z,6.60
2018-05-14T17:43:36.418Z,6.17
2018-05-14T17:46:04.409Z,7.10
2018-05-14T17:48:32.668Z,7.10
2018-05-14T17:51:00.184Z,6.93
2018-05-14T17:53:27.960Z,6.20
2018-05-14T17:55:55.468Z,8.77
2018-05-14T17:58:23.874Z,7.73
2018-05-14T18:00:51.445Z,8.23
2018-05-14T18:03:19.404Z,12.53
2018-05-14T18:05:47.240Z,7.03
2018-05-14T18:08:15.539Z,9.00
2018-05-14T18:10:43.070Z,7.60
2018-05-14T18:13:10.564Z,7.03
2018-05-14T18:15:38.070Z,7.60
2018-05-14T18:18:05.656Z,9.67
2018-05-14T18:20:42.520Z,7.27
2018-05-14T18:23:16.552Z,8.53
2018-05-14T18:25:49.857Z,7.10
2018-05-14T18:28:17.380Z,7.13
2018-05-14T18:30:46.597Z,11.40
2018-05-14T18:33:14.178Z,9.17
2018-05-14T18:35:54.355Z,6.80
2018-05-14T18:38:21.962Z,13.53
2018-05-14T18:40:50.318Z,8.30
2018-05-14T18:43:17.842Z,8.77
2018-05-14T18:45:46.446Z,10.00
2018-05-14T18:48:13.968Z,8.03
2018-05-14T18:50:41.774Z,10.30
2018-05-14T18:53:09.605Z,7.80
2018-05-14T18:55:37.165Z,10.33
2018-05-14T18:58:04.801Z,8.43
2018-05-14T19:00:32.339Z,7.70
2018-05-14T19:03:00.645Z,6.77
2018-05-14T19:05:28.177Z,7.67
2018-05-14T19:07:56.460Z,8.40
2018-05-14T19:10:29.819Z,5.90
2018-05-14T19:12:57.392Z,6.90
2018-05-14T19:15:33.384Z,7.13
2018-05-14T19:18:02.637Z,7.30
2018-05-14T19:20:30.148Z,7.43
2018-05-14T19:23:03.488Z,7.30
2018-05-14T19:25:31.053Z,7.80
2018-05-14T19:28:05.409Z,8.50
2018-05-14T19:30:33.149Z,8.97
2018-05-14T19:33:01.207Z,8.27
2018-05-14T19:35:35.006Z,7.10
2018-05-14T19:38:02.711Z,6.50
2018-05-14T19:40:35.758Z,6.70
2018-05-14T19:43:03.956Z,7.30
2018-05-14T19:45:32.247Z,7.97
2018-05-14T19:47:59.856Z,7.87
2018-05-14T19:50:29.026Z,7.00
2018-05-14T19:53:08.150Z,7.83
2018-05-14T19:55:36.062Z,7.20
2018-05-14T19:58:05.189Z,6.00
2018-05-14T20:00:34.320Z,7.30
2018-05-14T20:03:02.246Z,7.20
2018-05-14T20:05:30.945Z,6.50
2018-05-14T20:07:58.535Z,5.80
2018-05-14T20:10:26.901Z,6.50
2018-05-14T20:12:54.617Z,6.60
2018-05-14T20:15:22.074Z,6.10
2018-05-14T20:17:51.402Z,6.23
2018-05-14T20:20:19.730Z,6.00
2018-05-14T20:22:47.308Z,6.27
2018-05-14T20:25:15.630Z,6.90
2018-05-14T20:27:43.233Z,6.80
2018-05-14T20:30:12.543Z,6.10
2018-05-14T20:32:50.742Z,6.40
2018-05-14T20:35:18.531Z,6.60
2018-05-14T20:37:46.922Z,6.20
2018-05-14T20:40:15.441Z,6.20
2018-05-14T20:42:43.016Z,6.30
2018-05-14T20:45:10.618Z,6.40
2018-05-14T20:47:38.711Z,6.03
2018-05-14T20:50:07.167Z,6.07
2018-05-14T20:52:34.825Z,6.50
2018-05-14T20:55:03.098Z,6.30
2018-05-14T20:57:32.409Z,6.10
2018-05-14T21:00:01.834Z,6.20
2018-05-14T21:02:29.475Z,5.70
2018-05-14T21:04:56.986Z,6.30
2018-05-14T21:07:24.560Z,6.60
2018-05-14T21:09:52.093Z,6.30
2018-05-14T21:12:20.521Z,5.40
2018-05-14T21:14:48.838Z,6.30
2018-05-14T21:17:17.277Z,5.60
2018-05-14T21:19:44.813Z,6.23
2018-05-14T21:22:13.061Z,6.00
2018-05-14T21:24:42.084Z,6.03
2018-05-14T21:27:10.404Z,5.70
2018-05-14T21:29:37.914Z,6.23
2018-05-14T21:32:06.252Z,5.70
2018-05-14T21:34:33.745Z,6.00
2018-05-14T21:37:01.968Z,5.90
2018-05-14T21:39:29.487Z,6.37
2018-05-14T21:41:56.994Z,5.83
2018-05-14T21:44:24.509Z,5.77
2018-05-14T21:46:52.812Z,6.00
2018-05-14T21:49:20.309Z,6.27
2018-05-14T21:51:47.816Z,5.47
2018-05-14T21:54:15.318Z,5.50
2018-05-14T21:56:42.925Z,5.60
2018-05-14T21:59:10.425Z,5.70
2018-05-14T22:01:37.932Z,6.23
2018-05-14T22:04:06.209Z,6.20
2018-05-14T22:06:34.507Z,6.10
2018-05-14T22:09:02.068Z,5.83
2018-05-14T22:11:29.553Z,6.00
2018-05-14T22:13:57.069Z,5.50
2018-05-14T22:16:25.744Z,6.53
2018-05-14T22:18:53.212Z,6.70
2018-05-14T22:21:20.734Z,5.87
2018-05-14T22:23:48.283Z,5.90
2018-05-14T22:26:16.483Z,5.73
2018-05-14T22:28:44.762Z,5.33
2018-05-14T22:31:13.005Z,5.77
2018-05-14T22:33:51.489Z,5.93
2018-05-14T22:36:18.983Z,5.83
2018-05-14T22:38:46.497Z,5.97
2018-05-14T22:41:14.009Z,6.30
2018-05-14T22:43:41.545Z,6.03
2018-05-14T22:46:09.111Z,5.40
2018-05-14T22:48:36.685Z,4.97
2018-05-14T22:51:04.196Z,6.10
2018-05-14T22:53:31.689Z,5.60
2018-05-14T22:55:59.241Z,5.27
2018-05-14T22:58:26.728Z,5.83
2018-05-14T23:00:54.973Z,5.10
2018-05-14T23:03:22.483Z,5.90
2018-05-14T23:06:00.074Z,5.40
2018-05-14T23:08:27.599Z,6.20
2018-05-14T23:10:55.115Z,4.83
2018-05-14T23:13:22.640Z,5.23
2018-05-14T23:15:51.015Z,5.60
2018-05-14T23:18:19.265Z,4.83
2018-05-14T23:20:46.765Z,5.50
2018-05-14T23:23:14.291Z,6.37
2018-05-14T23:25:41.870Z,5.53
2018-05-14T23:28:10.158Z,6.10
2018-05-14T23:30:37.702Z,5.40
2018-05-14T23:33:07.125Z,5.43
2018-05-14T23:35:35.458Z,5.10
2018-05-14T23:38:02.997Z,5.80
2018-05-14T23:40:30.833Z,5.67
2018-05-14T23:42:58.394Z,5.03
2018-05-14T23:45:25.960Z,5.10
2018-05-14T23:47:53.435Z,5.87
2018-05-14T23:50:20.964Z,5.23
2018-05-14T23:52:48.523Z,5.33
2018-05-14T23:55:16.006Z,5.33
2018-05-14T23:57:43.486Z,5.90
